sensor_id;sensor_type;location;lat;lon;timestamp;P1;durP1;ratioP1;P2;durP2;ratioP2
77586;SDS011;66744;49.716;17.158;2023-03-01T00:01:04;29.30;;;12.98;;
77586;SDS011;66744;49.716;17.158;2023-03-01T00:04:07;29.45;;;14.02;;
77586;SDS011;66744;49.716;17.158;2023-03-01T00:07:08;28.40;;;14.27;;
77586;SDS011;66744;49.716;17.158;2023-03-01T00:10:09;26.33;;;14.85;;
77586;SDS011;66744;49.716;17.158;2023-03-01T00:13:11;33.08;;;16.17;;
77586;SDS011;66744;49.716;17.158;2023-03-01T00:16:14;36.65;;;16.75;;
77586;SDS011;66744;49.716;17.158;2023-03-01T00:19:18;36.28;;;16.58;;
77586;SDS011;66744;49.716;17.158;2023-03-01T00:22:20;34.92;;;16.42;;
77586;SDS011;66744;49.716;17.158;2023-03-01T00:25:21;31.83;;;15.68;;
77586;SDS011;66744;49.716;17.158;2023-03-01T00:28:23;34.42;;;17.20;;
77586;SDS011;66744;49.716;17.158;2023-03-01T00:31:25;35.15;;;17.90;;
77586;SDS011;66744;49.716;17.158;2023-03-01T00:34:28;35.97;;;17.60;;
77586;SDS011;66744;49.716;17.158;2023-03-01T00:37:29;36.38;;;17.90;;
77586;SDS011;66744;49.716;17.158;2023-03-01T00:40:32;36.45;;;17.80;;
77586;SDS011;66744;49.716;17.158;2023-03-01T00:43:35;30.77;;;16.10;;
77586;SDS011;66744;49.716;17.158;2023-03-01T00:46:39;35.30;;;18.40;;
77586;SDS011;66744;49.716;17.158;2023-03-01T00:49:40;39.95;;;19.05;;
77586;SDS011;66744;49.716;17.158;2023-03-01T00:52:42;37.65;;;18.45;;
77586;SDS011;66744;49.716;17.158;2023-03-01T00:58:44;36.33;;;18.63;;
77586;SDS011;66744;49.716;17.158;2023-03-01T01:01:45;40.13;;;19.35;;
77586;SDS011;66744;49.716;17.158;2023-03-01T01:04:47;43.67;;;19.88;;
77586;SDS011;66744;49.716;17.158;2023-03-01T01:07:48;38.13;;;18.73;;
77586;SDS011;66744;49.716;17.158;2023-03-01T01:10:49;34.42;;;18.33;;
77586;SDS011;66744;49.716;17.158;2023-03-01T01:13:52;38.00;;;17.25;;
77586;SDS011;66744;49.716;17.158;2023-03-01T01:19:54;38.47;;;17.80;;
77586;SDS011;66744;49.716;17.158;2023-03-01T01:22:56;37.17;;;18.83;;
77586;SDS011;66744;49.716;17.158;2023-03-01T01:26:02;39.40;;;19.30;;
77586;SDS011;66744;49.716;17.158;2023-03-01T01:29:08;40.30;;;19.40;;
77586;SDS011;66744;49.716;17.158;2023-03-01T01:32:09;35.25;;;18.02;;
77586;SDS011;66744;49.716;17.158;2023-03-01T01:35:11;40.72;;;20.25;;
77586;SDS011;66744;49.716;17.158;2023-03-01T01:38:12;35.85;;;17.48;;
77586;SDS011;66744;49.716;17.158;2023-03-01T01:41:13;41.13;;;19.77;;
77586;SDS011;66744;49.716;17.158;2023-03-01T01:44:23;36.22;;;17.35;;
77586;SDS011;66744;49.716;17.158;2023-03-01T01:47:32;33.10;;;16.88;;
77586;SDS011;66744;49.716;17.158;2023-03-01T01:50:33;38.85;;;18.95;;
77586;SDS011;66744;49.716;17.158;2023-03-01T01:53:40;34.28;;;18.27;;
77586;SDS011;66744;49.716;17.158;2023-03-01T01:56:48;37.78;;;18.60;;
77586;SDS011;66744;49.716;17.158;2023-03-01T01:59:54;40.75;;;19.27;;
77586;SDS011;66744;49.716;17.158;2023-03-01T02:03:04;39.95;;;18.90;;
77586;SDS011;66744;49.716;17.158;2023-03-01T02:06:27;32.72;;;16.92;;
77586;SDS011;66744;49.716;17.158;2023-03-01T02:09:33;35.60;;;17.42;;
77586;SDS011;66744;49.716;17.158;2023-03-01T02:12:36;33.40;;;16.20;;
77586;SDS011;66744;49.716;17.158;2023-03-01T02:15:39;31.80;;;16.75;;
77586;SDS011;66744;49.716;17.158;2023-03-01T02:18:42;36.92;;;17.55;;
77586;SDS011;66744;49.716;17.158;2023-03-01T02:28:42;31.73;;;15.80;;
77586;SDS011;66744;49.716;17.158;2023-03-01T02:31:45;33.70;;;16.38;;
77586;SDS011;66744;49.716;17.158;2023-03-01T02:34:47;37.88;;;18.00;;
77586;SDS011;66744;49.716;17.158;2023-03-01T02:37:48;29.58;;;14.70;;
77586;SDS011;66744;49.716;17.158;2023-03-01T02:40:50;34.63;;;17.00;;
77586;SDS011;66744;49.716;17.158;2023-03-01T02:43:52;33.05;;;17.23;;
77586;SDS011;66744;49.716;17.158;2023-03-01T02:46:55;31.73;;;17.17;;
77586;SDS011;66744;49.716;17.158;2023-03-01T02:49:57;32.45;;;15.27;;
77586;SDS011;66744;49.716;17.158;2023-03-01T02:56:13;33.17;;;16.20;;
77586;SDS011;66744;49.716;17.158;2023-03-01T02:59:16;35.15;;;17.08;;
77586;SDS011;66744;49.716;17.158;2023-03-01T03:02:25;34.72;;;16.05;;
77586;SDS011;66744;49.716;17.158;2023-03-01T03:05:40;37.42;;;16.92;;
77586;SDS011;66744;49.716;17.158;2023-03-01T03:08:42;31.67;;;16.52;;
77586;SDS011;66744;49.716;17.158;2023-03-01T03:11:44;33.67;;;16.42;;
77586;SDS011;66744;49.716;17.158;2023-03-01T03:14:46;35.22;;;16.77;;
77586;SDS011;66744;49.716;17.158;2023-03-01T03:17:47;33.53;;;15.98;;
77586;SDS011;66744;49.716;17.158;2023-03-01T03:20:49;31.00;;;15.90;;
77586;SDS011;66744;49.716;17.158;2023-03-01T03:23:53;35.53;;;16.98;;
77586;SDS011;66744;49.716;17.158;2023-03-01T03:26:55;32.78;;;15.45;;
77586;SDS011;66744;49.716;17.158;2023-03-01T03:29:56;32.22;;;16.83;;
77586;SDS011;66744;49.716;17.158;2023-03-01T03:32:58;28.83;;;15.60;;
77586;SDS011;66744;49.716;17.158;2023-03-01T03:35:59;33.80;;;16.95;;
77586;SDS011;66744;49.716;17.158;2023-03-01T03:39:01;34.35;;;16.67;;
77586;SDS011;66744;49.716;17.158;2023-03-01T03:42:03;34.83;;;16.10;;
77586;SDS011;66744;49.716;17.158;2023-03-01T03:45:05;34.15;;;16.45;;
77586;SDS011;66744;49.716;17.158;2023-03-01T03:48:07;34.28;;;15.95;;
77586;SDS011;66744;49.716;17.158;2023-03-01T03:51:13;30.25;;;15.43;;
77586;SDS011;66744;49.716;17.158;2023-03-01T03:54:15;29.35;;;16.80;;
77586;SDS011;66744;49.716;17.158;2023-03-01T03:57:17;31.75;;;16.00;;
77586;SDS011;66744;49.716;17.158;2023-03-01T04:00:20;28.77;;;15.30;;
77586;SDS011;66744;49.716;17.158;2023-03-01T04:03:23;30.05;;;15.15;;
77586;SDS011;66744;49.716;17.158;2023-03-01T04:06:25;27.30;;;13.85;;
77586;SDS011;66744;49.716;17.158;2023-03-01T04:09:26;28.50;;;15.80;;
77586;SDS011;66744;49.716;17.158;2023-03-01T04:12:28;28.45;;;13.93;;
77586;SDS011;66744;49.716;17.158;2023-03-01T04:15:30;28.77;;;14.68;;
77586;SDS011;66744;49.716;17.158;2023-03-01T04:18:32;31.67;;;16.30;;
77586;SDS011;66744;49.716;17.158;2023-03-01T04:21:33;28.38;;;14.23;;
77586;SDS011;66744;49.716;17.158;2023-03-01T04:27:36;26.33;;;13.60;;
77586;SDS011;66744;49.716;17.158;2023-03-01T04:30:38;26.30;;;14.15;;
77586;SDS011;66744;49.716;17.158;2023-03-01T04:33:40;30.65;;;14.52;;
77586;SDS011;66744;49.716;17.158;2023-03-01T04:36:46;30.92;;;14.98;;
77586;SDS011;66744;49.716;17.158;2023-03-01T04:39:47;31.85;;;15.88;;
77586;SDS011;66744;49.716;17.158;2023-03-01T04:42:49;35.45;;;15.70;;
77586;SDS011;66744;49.716;17.158;2023-03-01T04:45:50;29.33;;;14.30;;
77586;SDS011;66744;49.716;17.158;2023-03-01T04:48:51;25.45;;;14.40;;
77586;SDS011;66744;49.716;17.158;2023-03-01T04:51:52;27.63;;;14.88;;
77586;SDS011;66744;49.716;17.158;2023-03-01T04:54:54;34.97;;;15.70;;
77586;SDS011;66744;49.716;17.158;2023-03-01T04:57:55;29.27;;;14.07;;
77586;SDS011;66744;49.716;17.158;2023-03-01T05:00:56;28.70;;;13.88;;
77586;SDS011;66744;49.716;17.158;2023-03-01T05:03:58;26.60;;;13.93;;
77586;SDS011;66744;49.716;17.158;2023-03-01T05:07:03;29.80;;;13.85;;
77586;SDS011;66744;49.716;17.158;2023-03-01T05:10:04;37.00;;;16.92;;
77586;SDS011;66744;49.716;17.158;2023-03-01T05:13:06;26.35;;;14.10;;
77586;SDS011;66744;49.716;17.158;2023-03-01T05:16:07;31.88;;;14.48;;
77586;SDS011;66744;49.716;17.158;2023-03-01T05:19:11;30.63;;;15.27;;
77586;SDS011;66744;49.716;17.158;2023-03-01T05:22:16;27.02;;;12.98;;
77586;SDS011;66744;49.716;17.158;2023-03-01T05:25:17;28.35;;;13.73;;
77586;SDS011;66744;49.716;17.158;2023-03-01T05:28:19;24.83;;;11.80;;
77586;SDS011;66744;49.716;17.158;2023-03-01T05:31:20;27.65;;;13.23;;
77586;SDS011;66744;49.716;17.158;2023-03-01T05:34:25;29.00;;;14.15;;
77586;SDS011;66744;49.716;17.158;2023-03-01T05:37:28;31.60;;;14.98;;
77586;SDS011;66744;49.716;17.158;2023-03-01T05:40:32;27.75;;;15.45;;
77586;SDS011;66744;49.716;17.158;2023-03-01T05:43:34;29.00;;;13.90;;
77586;SDS011;66744;49.716;17.158;2023-03-01T05:46:36;31.20;;;14.20;;
77586;SDS011;66744;49.716;17.158;2023-03-01T05:49:37;27.70;;;13.93;;
77586;SDS011;66744;49.716;17.158;2023-03-01T05:52:38;26.17;;;13.00;;
77586;SDS011;66744;49.716;17.158;2023-03-01T05:58:41;32.00;;;14.85;;
77586;SDS011;66744;49.716;17.158;2023-03-01T06:01:42;27.75;;;13.82;;
77586;SDS011;66744;49.716;17.158;2023-03-01T06:04:44;28.92;;;14.45;;
77586;SDS011;66744;49.716;17.158;2023-03-01T06:07:45;29.73;;;13.25;;
77586;SDS011;66744;49.716;17.158;2023-03-01T06:10:47;26.83;;;13.40;;
77586;SDS011;66744;49.716;17.158;2023-03-01T06:16:49;25.08;;;13.13;;
77586;SDS011;66744;49.716;17.158;2023-03-01T06:19:50;25.63;;;12.70;;
77586;SDS011;66744;49.716;17.158;2023-03-01T06:22:52;25.05;;;12.43;;
77586;SDS011;66744;49.716;17.158;2023-03-01T06:25:53;27.23;;;13.57;;
77586;SDS011;66744;49.716;17.158;2023-03-01T06:28:54;25.55;;;13.52;;
77586;SDS011;66744;49.716;17.158;2023-03-01T06:31:55;29.33;;;12.68;;
77586;SDS011;66744;49.716;17.158;2023-03-01T06:34:57;26.70;;;13.10;;
77586;SDS011;66744;49.716;17.158;2023-03-01T06:38:00;26.75;;;12.40;;
77586;SDS011;66744;49.716;17.158;2023-03-01T06:41:02;29.48;;;14.40;;
77586;SDS011;66744;49.716;17.158;2023-03-01T06:44:04;23.27;;;12.82;;
77586;SDS011;66744;49.716;17.158;2023-03-01T06:47:05;27.77;;;13.40;;
77586;SDS011;66744;49.716;17.158;2023-03-01T06:50:07;21.55;;;12.25;;
77586;SDS011;66744;49.716;17.158;2023-03-01T06:53:09;28.90;;;13.77;;
77586;SDS011;66744;49.716;17.158;2023-03-01T06:56:10;22.88;;;13.10;;
77586;SDS011;66744;49.716;17.158;2023-03-01T06:59:11;28.45;;;13.40;;
77586;SDS011;66744;49.716;17.158;2023-03-01T07:02:13;28.77;;;14.10;;
77586;SDS011;66744;49.716;17.158;2023-03-01T07:05:15;30.15;;;15.15;;
77586;SDS011;66744;49.716;17.158;2023-03-01T07:08:18;35.20;;;14.32;;
77586;SDS011;66744;49.716;17.158;2023-03-01T07:11:19;31.45;;;14.55;;
77586;SDS011;66744;49.716;17.158;2023-03-01T07:14:20;30.48;;;15.25;;
77586;SDS011;66744;49.716;17.158;2023-03-01T07:17:22;32.20;;;16.02;;
77586;SDS011;66744;49.716;17.158;2023-03-01T07:20:23;27.65;;;14.18;;
77586;SDS011;66744;49.716;17.158;2023-03-01T07:23:26;29.75;;;14.77;;
77586;SDS011;66744;49.716;17.158;2023-03-01T07:29:29;26.33;;;13.30;;
77586;SDS011;66744;49.716;17.158;2023-03-01T07:32:32;27.90;;;15.27;;
77586;SDS011;66744;49.716;17.158;2023-03-01T07:35:33;29.90;;;15.57;;
77586;SDS011;66744;49.716;17.158;2023-03-01T07:38:34;30.83;;;15.35;;
77586;SDS011;66744;49.716;17.158;2023-03-01T07:41:35;25.38;;;14.32;;
77586;SDS011;66744;49.716;17.158;2023-03-01T07:44:37;31.88;;;16.00;;
77586;SDS011;66744;49.716;17.158;2023-03-01T07:50:40;31.92;;;16.55;;
77586;SDS011;66744;49.716;17.158;2023-03-01T07:56:42;31.30;;;15.95;;
77586;SDS011;66744;49.716;17.158;2023-03-01T08:02:45;35.35;;;17.33;;
77586;SDS011;66744;49.716;17.158;2023-03-01T08:05:49;30.83;;;16.77;;
77586;SDS011;66744;49.716;17.158;2023-03-01T08:08:54;32.60;;;16.80;;
77586;SDS011;66744;49.716;17.158;2023-03-01T08:11:59;31.75;;;17.50;;
77586;SDS011;66744;49.716;17.158;2023-03-01T08:18:01;33.03;;;16.98;;
77586;SDS011;66744;49.716;17.158;2023-03-01T08:21:04;33.47;;;17.13;;
77586;SDS011;66744;49.716;17.158;2023-03-01T08:24:10;30.60;;;17.65;;
77586;SDS011;66744;49.716;17.158;2023-03-01T08:30:12;31.13;;;17.02;;
77586;SDS011;66744;49.716;17.158;2023-03-01T08:33:14;31.27;;;17.02;;
77586;SDS011;66744;49.716;17.158;2023-03-01T08:39:27;29.85;;;16.20;;
77586;SDS011;66744;49.716;17.158;2023-03-01T08:42:32;27.20;;;15.90;;
77586;SDS011;66744;49.716;17.158;2023-03-01T08:45:33;34.83;;;17.25;;
77586;SDS011;66744;49.716;17.158;2023-03-01T08:48:35;28.75;;;15.35;;
77586;SDS011;66744;49.716;17.158;2023-03-01T08:51:36;23.85;;;13.80;;
77586;SDS011;66744;49.716;17.158;2023-03-01T08:54:38;29.25;;;15.45;;
77586;SDS011;66744;49.716;17.158;2023-03-01T08:57:39;24.50;;;14.30;;
77586;SDS011;66744;49.716;17.158;2023-03-01T09:00:40;31.33;;;16.25;;
77586;SDS011;66744;49.716;17.158;2023-03-01T09:03:41;28.52;;;15.65;;
77586;SDS011;66744;49.716;17.158;2023-03-01T09:06:43;28.17;;;15.27;;
77586;SDS011;66744;49.716;17.158;2023-03-01T09:09:44;27.98;;;15.95;;
77586;SDS011;66744;49.716;17.158;2023-03-01T09:12:46;22.85;;;14.77;;
77586;SDS011;66744;49.716;17.158;2023-03-01T09:15:48;32.95;;;17.67;;
77586;SDS011;66744;49.716;17.158;2023-03-01T09:18:50;25.63;;;15.18;;
77586;SDS011;66744;49.716;17.158;2023-03-01T09:21:53;24.63;;;14.75;;
77586;SDS011;66744;49.716;17.158;2023-03-01T09:24:54;22.15;;;13.30;;
77586;SDS011;66744;49.716;17.158;2023-03-01T09:27:57;24.58;;;13.63;;
77586;SDS011;66744;49.716;17.158;2023-03-01T09:30:58;23.00;;;13.93;;
77586;SDS011;66744;49.716;17.158;2023-03-01T09:34:00;21.17;;;12.35;;
77586;SDS011;66744;49.716;17.158;2023-03-01T09:37:04;24.33;;;14.45;;
77586;SDS011;66744;49.716;17.158;2023-03-01T09:40:05;33.90;;;18.13;;
77586;SDS011;66744;49.716;17.158;2023-03-01T09:46:38;27.48;;;17.70;;
77586;SDS011;66744;49.716;17.158;2023-03-01T09:49:44;26.88;;;14.68;;
77586;SDS011;66744;49.716;17.158;2023-03-01T09:53:13;21.33;;;12.15;;
77586;SDS011;66744;49.716;17.158;2023-03-01T09:59:33;27.30;;;10.90;;
77586;SDS011;66744;49.716;17.158;2023-03-01T10:09:04;19.40;;;11.88;;
77586;SDS011;66744;49.716;17.158;2023-03-01T10:12:12;23.27;;;11.43;;
77586;SDS011;66744;49.716;17.158;2023-03-01T10:15:22;24.52;;;12.18;;
77586;SDS011;66744;49.716;17.158;2023-03-01T10:22:12;19.83;;;11.35;;
77586;SDS011;66744;49.716;17.158;2023-03-01T10:25:17;17.42;;;10.95;;
77586;SDS011;66744;49.716;17.158;2023-03-01T10:32:11;19.92;;;11.63;;
77586;SDS011;66744;49.716;17.158;2023-03-01T10:35:23;18.98;;;12.13;;
77586;SDS011;66744;49.716;17.158;2023-03-01T10:38:26;22.23;;;12.05;;
77586;SDS011;66744;49.716;17.158;2023-03-01T10:41:32;20.83;;;11.68;;
77586;SDS011;66744;49.716;17.158;2023-03-01T10:47:40;26.00;;;13.52;;
77586;SDS011;66744;49.716;17.158;2023-03-01T10:50:43;19.98;;;12.40;;
77586;SDS011;66744;49.716;17.158;2023-03-01T10:53:49;19.42;;;10.38;;
77586;SDS011;66744;49.716;17.158;2023-03-01T10:56:53;19.08;;;11.20;;
77586;SDS011;66744;49.716;17.158;2023-03-01T11:00:03;21.58;;;12.15;;
77586;SDS011;66744;49.716;17.158;2023-03-01T11:03:13;17.88;;;11.40;;
77586;SDS011;66744;49.716;17.158;2023-03-01T11:09:23;18.35;;;10.52;;
77586;SDS011;66744;49.716;17.158;2023-03-01T11:12:28;22.15;;;13.15;;
77586;SDS011;66744;49.716;17.158;2023-03-01T11:15:30;30.30;;;17.42;;
77586;SDS011;66744;49.716;17.158;2023-03-01T11:18:32;19.95;;;11.77;;
77586;SDS011;66744;49.716;17.158;2023-03-01T11:21:33;19.77;;;10.38;;
77586;SDS011;66744;49.716;17.158;2023-03-01T11:24:39;20.38;;;12.32;;
77586;SDS011;66744;49.716;17.158;2023-03-01T11:27:44;19.45;;;11.98;;
77586;SDS011;66744;49.716;17.158;2023-03-01T11:34:03;24.30;;;12.80;;
77586;SDS011;66744;49.716;17.158;2023-03-01T11:37:16;17.55;;;11.82;;
77586;SDS011;66744;49.716;17.158;2023-03-01T11:40:24;18.58;;;11.35;;
77586;SDS011;66744;49.716;17.158;2023-03-01T11:53:07;19.98;;;11.75;;
77586;SDS011;66744;49.716;17.158;2023-03-01T12:03:22;18.85;;;11.57;;
77586;SDS011;66744;49.716;17.158;2023-03-01T12:16:40;18.33;;;10.77;;
77586;SDS011;66744;49.716;17.158;2023-03-01T12:23:20;21.50;;;11.25;;
77586;SDS011;66744;49.716;17.158;2023-03-01T12:46:14;13.88;;;9.20;;
77586;SDS011;66744;49.716;17.158;2023-03-01T12:49:26;19.75;;;10.85;;
77586;SDS011;66744;49.716;17.158;2023-03-01T12:52:50;13.57;;;8.85;;
77586;SDS011;66744;49.716;17.158;2023-03-01T12:55:55;17.88;;;10.80;;
77586;SDS011;66744;49.716;17.158;2023-03-01T12:59:34;17.42;;;9.93;;
77586;SDS011;66744;49.716;17.158;2023-03-01T13:06:08;17.65;;;10.27;;
77586;SDS011;66744;49.716;17.158;2023-03-01T13:12:46;15.05;;;8.88;;
77586;SDS011;66744;49.716;17.158;2023-03-01T13:15:53;17.75;;;10.10;;
77586;SDS011;66744;49.716;17.158;2023-03-01T13:19:12;16.90;;;10.02;;
77586;SDS011;66744;49.716;17.158;2023-03-01T13:22:27;18.40;;;9.38;;
77586;SDS011;66744;49.716;17.158;2023-03-01T13:25:32;20.38;;;11.77;;
77586;SDS011;66744;49.716;17.158;2023-03-01T13:34:39;21.17;;;12.13;;
77586;SDS011;66744;49.716;17.158;2023-03-01T13:37:45;20.30;;;11.57;;
77586;SDS011;66744;49.716;17.158;2023-03-01T13:43:51;25.90;;;12.30;;
77586;SDS011;66744;49.716;17.158;2023-03-01T13:46:53;22.70;;;11.25;;
77586;SDS011;66744;49.716;17.158;2023-03-01T13:50:00;20.95;;;12.63;;
77586;SDS011;66744;49.716;17.158;2023-03-01T13:53:04;23.50;;;14.82;;
77586;SDS011;66744;49.716;17.158;2023-03-01T13:56:09;27.00;;;14.32;;
77586;SDS011;66744;49.716;17.158;2023-03-01T13:59:15;28.33;;;15.57;;
77586;SDS011;66744;49.716;17.158;2023-03-01T14:02:18;23.02;;;13.60;;
77586;SDS011;66744;49.716;17.158;2023-03-01T14:05:20;27.23;;;16.10;;
77586;SDS011;66744;49.716;17.158;2023-03-01T14:08:22;31.15;;;15.75;;
77586;SDS011;66744;49.716;17.158;2023-03-01T14:18:22;28.55;;;16.83;;
77586;SDS011;66744;49.716;17.158;2023-03-01T14:21:32;32.72;;;17.50;;
77586;SDS011;66744;49.716;17.158;2023-03-01T14:24:33;30.13;;;16.02;;
77586;SDS011;66744;49.716;17.158;2023-03-01T14:27:39;33.20;;;18.33;;
77586;SDS011;66744;49.716;17.158;2023-03-01T14:30:49;33.97;;;17.90;;
77586;SDS011;66744;49.716;17.158;2023-03-01T14:33:55;34.42;;;17.25;;
77586;SDS011;66744;49.716;17.158;2023-03-01T14:36:57;29.70;;;17.70;;
77586;SDS011;66744;49.716;17.158;2023-03-01T14:40:19;31.23;;;17.60;;
77586;SDS011;66744;49.716;17.158;2023-03-01T14:43:23;32.22;;;17.70;;
77586;SDS011;66744;49.716;17.158;2023-03-01T14:49:38;32.17;;;18.02;;
77586;SDS011;66744;49.716;17.158;2023-03-01T14:52:41;29.15;;;16.55;;
77586;SDS011;66744;49.716;17.158;2023-03-01T14:55:46;27.63;;;14.65;;
77586;SDS011;66744;49.716;17.158;2023-03-01T14:58:52;29.45;;;16.92;;
77586;SDS011;66744;49.716;17.158;2023-03-01T15:01:55;31.23;;;15.65;;
77586;SDS011;66744;49.716;17.158;2023-03-01T15:04:58;26.95;;;14.82;;
77586;SDS011;66744;49.716;17.158;2023-03-01T15:08:03;31.67;;;16.60;;
77586;SDS011;66744;49.716;17.158;2023-03-01T15:11:17;27.38;;;14.70;;
77586;SDS011;66744;49.716;17.158;2023-03-01T15:14:40;27.17;;;15.60;;
77586;SDS011;66744;49.716;17.158;2023-03-01T15:17:43;28.02;;;14.68;;
77586;SDS011;66744;49.716;17.158;2023-03-01T15:20:45;30.67;;;16.67;;
77586;SDS011;66744;49.716;17.158;2023-03-01T15:23:52;29.20;;;16.38;;
77586;SDS011;66744;49.716;17.158;2023-03-01T15:27:00;28.52;;;15.57;;
77586;SDS011;66744;49.716;17.158;2023-03-01T15:30:13;29.85;;;16.30;;
77586;SDS011;66744;49.716;17.158;2023-03-01T15:36:32;39.38;;;18.92;;
77586;SDS011;66744;49.716;17.158;2023-03-01T15:39:52;41.45;;;17.92;;
77586;SDS011;66744;49.716;17.158;2023-03-01T15:42:54;34.03;;;17.90;;
77586;SDS011;66744;49.716;17.158;2023-03-01T15:45:57;32.88;;;16.45;;
77586;SDS011;66744;49.716;17.158;2023-03-01T15:49:00;32.58;;;18.45;;
77586;SDS011;66744;49.716;17.158;2023-03-01T15:52:04;36.35;;;17.17;;
77586;SDS011;66744;49.716;17.158;2023-03-01T15:55:17;32.72;;;18.23;;
77586;SDS011;66744;49.716;17.158;2023-03-01T15:58:24;35.50;;;17.60;;
77586;SDS011;66744;49.716;17.158;2023-03-01T16:01:25;36.33;;;17.50;;
77586;SDS011;66744;49.716;17.158;2023-03-01T16:04:28;32.38;;;18.83;;
77586;SDS011;66744;49.716;17.158;2023-03-01T16:07:29;39.28;;;19.98;;
77586;SDS011;66744;49.716;17.158;2023-03-01T16:10:32;38.60;;;18.88;;
77586;SDS011;66744;49.716;17.158;2023-03-01T16:13:34;36.33;;;18.30;;
77586;SDS011;66744;49.716;17.158;2023-03-01T16:16:35;36.05;;;18.92;;
77586;SDS011;66744;49.716;17.158;2023-03-01T16:19:37;37.00;;;19.45;;
77586;SDS011;66744;49.716;17.158;2023-03-01T16:22:39;31.60;;;16.98;;
77586;SDS011;66744;49.716;17.158;2023-03-01T16:25:41;64.18;;;27.30;;
77586;SDS011;66744;49.716;17.158;2023-03-01T16:28:43;41.22;;;20.75;;
77586;SDS011;66744;49.716;17.158;2023-03-01T16:31:45;36.70;;;19.15;;
77586;SDS011;66744;49.716;17.158;2023-03-01T16:34:46;35.97;;;19.40;;
77586;SDS011;66744;49.716;17.158;2023-03-01T16:37:50;41.97;;;21.88;;
77586;SDS011;66744;49.716;17.158;2023-03-01T16:40:53;38.47;;;21.35;;
77586;SDS011;66744;49.716;17.158;2023-03-01T16:43:54;36.47;;;19.33;;
77586;SDS011;66744;49.716;17.158;2023-03-01T16:46:56;38.80;;;20.35;;
77586;SDS011;66744;49.716;17.158;2023-03-01T16:49:57;40.67;;;20.10;;
77586;SDS011;66744;49.716;17.158;2023-03-01T16:52:58;32.90;;;18.58;;
77586;SDS011;66744;49.716;17.158;2023-03-01T16:55:59;36.15;;;19.58;;
77586;SDS011;66744;49.716;17.158;2023-03-01T16:59:01;33.90;;;18.30;;
77586;SDS011;66744;49.716;17.158;2023-03-01T17:02:02;37.38;;;19.85;;
77586;SDS011;66744;49.716;17.158;2023-03-01T17:05:04;42.60;;;21.65;;
77586;SDS011;66744;49.716;17.158;2023-03-01T17:08:09;57.97;;;27.75;;
77586;SDS011;66744;49.716;17.158;2023-03-01T17:11:14;54.83;;;28.33;;
77586;SDS011;66744;49.716;17.158;2023-03-01T17:14:18;52.35;;;26.42;;
77586;SDS011;66744;49.716;17.158;2023-03-01T17:17:20;48.92;;;26.65;;
77586;SDS011;66744;49.716;17.158;2023-03-01T17:20:22;47.08;;;23.60;;
77586;SDS011;66744;49.716;17.158;2023-03-01T17:23:23;46.15;;;24.92;;
77586;SDS011;66744;49.716;17.158;2023-03-01T17:26:25;47.97;;;25.42;;
77586;SDS011;66744;49.716;17.158;2023-03-01T17:29:26;41.67;;;21.33;;
77586;SDS011;66744;49.716;17.158;2023-03-01T17:32:28;40.40;;;21.75;;
77586;SDS011;66744;49.716;17.158;2023-03-01T17:35:29;44.65;;;24.67;;
77586;SDS011;66744;49.716;17.158;2023-03-01T17:38:30;45.28;;;25.65;;
77586;SDS011;66744;49.716;17.158;2023-03-01T17:41:32;55.53;;;29.60;;
77586;SDS011;66744;49.716;17.158;2023-03-01T17:47:34;39.47;;;21.13;;
77586;SDS011;66744;49.716;17.158;2023-03-01T17:50:36;41.33;;;21.23;;
77586;SDS011;66744;49.716;17.158;2023-03-01T17:53:40;38.83;;;21.95;;
77586;SDS011;66744;49.716;17.158;2023-03-01T17:56:42;44.88;;;22.02;;
77586;SDS011;66744;49.716;17.158;2023-03-01T17:59:43;56.28;;;24.73;;
77586;SDS011;66744;49.716;17.158;2023-03-01T18:02:45;51.00;;;22.75;;
77586;SDS011;66744;49.716;17.158;2023-03-01T18:05:46;49.65;;;23.55;;
77586;SDS011;66744;49.716;17.158;2023-03-01T18:08:48;41.72;;;22.13;;
77586;SDS011;66744;49.716;17.158;2023-03-01T18:11:52;38.30;;;20.88;;
77586;SDS011;66744;49.716;17.158;2023-03-01T18:14:53;40.42;;;19.48;;
77586;SDS011;66744;49.716;17.158;2023-03-01T18:17:55;39.42;;;20.90;;
77586;SDS011;66744;49.716;17.158;2023-03-01T18:20:58;38.50;;;18.67;;
77586;SDS011;66744;49.716;17.158;2023-03-01T18:24:00;33.40;;;18.20;;
77586;SDS011;66744;49.716;17.158;2023-03-01T18:27:02;34.58;;;17.90;;
77586;SDS011;66744;49.716;17.158;2023-03-01T18:30:05;29.30;;;16.00;;
77586;SDS011;66744;49.716;17.158;2023-03-01T18:33:07;32.60;;;18.08;;
77586;SDS011;66744;49.716;17.158;2023-03-01T18:39:17;30.05;;;16.17;;
77586;SDS011;66744;49.716;17.158;2023-03-01T18:42:20;34.78;;;17.35;;
77586;SDS011;66744;49.716;17.158;2023-03-01T18:45:21;34.28;;;17.58;;
77586;SDS011;66744;49.716;17.158;2023-03-01T18:48:23;29.15;;;17.30;;
77586;SDS011;66744;49.716;17.158;2023-03-01T18:51:25;34.55;;;18.17;;
77586;SDS011;66744;49.716;17.158;2023-03-01T18:54:27;35.28;;;17.98;;
77586;SDS011;66744;49.716;17.158;2023-03-01T18:57:29;35.58;;;18.08;;
77586;SDS011;66744;49.716;17.158;2023-03-01T19:00:31;32.45;;;17.48;;
77586;SDS011;66744;49.716;17.158;2023-03-01T19:03:33;34.72;;;16.80;;
77586;SDS011;66744;49.716;17.158;2023-03-01T19:06:35;32.90;;;15.65;;
77586;SDS011;66744;49.716;17.158;2023-03-01T19:09:37;31.27;;;17.65;;
77586;SDS011;66744;49.716;17.158;2023-03-01T19:12:39;35.15;;;16.70;;
77586;SDS011;66744;49.716;17.158;2023-03-01T19:18:44;32.58;;;17.00;;
77586;SDS011;66744;49.716;17.158;2023-03-01T19:21:50;37.38;;;17.33;;
77586;SDS011;66744;49.716;17.158;2023-03-01T19:24:52;33.80;;;17.42;;
77586;SDS011;66744;49.716;17.158;2023-03-01T19:27:53;32.97;;;15.30;;
77586;SDS011;66744;49.716;17.158;2023-03-01T19:30:59;34.42;;;18.02;;
77586;SDS011;66744;49.716;17.158;2023-03-01T19:34:02;32.47;;;16.52;;
77586;SDS011;66744;49.716;17.158;2023-03-01T19:37:03;36.10;;;17.63;;
77586;SDS011;66744;49.716;17.158;2023-03-01T19:40:05;39.45;;;18.23;;
77586;SDS011;66744;49.716;17.158;2023-03-01T19:43:07;31.63;;;17.92;;
77586;SDS011;66744;49.716;17.158;2023-03-01T19:46:09;32.67;;;20.63;;
77586;SDS011;66744;49.716;17.158;2023-03-01T19:49:11;39.88;;;19.30;;
77586;SDS011;66744;49.716;17.158;2023-03-01T19:55:14;33.33;;;15.35;;
77586;SDS011;66744;49.716;17.158;2023-03-01T19:58:15;31.25;;;18.85;;
77586;SDS011;66744;49.716;17.158;2023-03-01T20:04:18;33.28;;;17.45;;
77586;SDS011;66744;49.716;17.158;2023-03-01T20:07:21;33.55;;;17.65;;
77586;SDS011;66744;49.716;17.158;2023-03-01T20:13:26;31.27;;;16.20;;
77586;SDS011;66744;49.716;17.158;2023-03-01T20:16:28;33.83;;;16.95;;
77586;SDS011;66744;49.716;17.158;2023-03-01T20:22:31;30.83;;;15.52;;
77586;SDS011;66744;49.716;17.158;2023-03-01T20:25:32;38.38;;;18.05;;
77586;SDS011;66744;49.716;17.158;2023-03-01T20:28:34;36.10;;;18.67;;
77586;SDS011;66744;49.716;17.158;2023-03-01T20:31:36;36.30;;;17.45;;
77586;SDS011;66744;49.716;17.158;2023-03-01T20:34:39;33.85;;;17.60;;